sensor_id;sensor_type;location;lat;lon;timestamp;pressure;altitude;pressure_sealevel;temperature;humidity
19447;BME280;9862;49.462;11.054;2023-02-04T00:02:05;98993.03;;;7.67;100.00
19447;BME280;9862;49.462;11.054;2023-02-04T00:04:32;98987.25;;;7.56;100.00
19447;BME280;9862;49.462;11.054;2023-02-04T00:07:01;98999.50;;;7.65;100.00
19447;BME280;9862;49.462;11.054;2023-02-04T00:09:27;98993.03;;;7.67;100.00
19447;BME280;9862;49.462;11.054;2023-02-04T00:11:54;98986.56;;;7.70;100.00
19447;BME280;9862;49.462;11.054;2023-02-04T00:14:21;98990.56;;;7.58;100.00
19447;BME280;9862;49.462;11.054;2023-02-04T00:16:48;98992.56;;;7.47;100.00
19447;BME280;9862;49.462;11.054;2023-02-04T00:19:14;98987.59;;;7.44;100.00
19447;BME280;9862;49.462;11.054;2023-02-04T00:21:42;98994.88;;;7.59;100.00
19447;BME280;9862;49.462;11.054;2023-02-04T00:24:10;98988.09;;;7.64;100.00
19447;BME280;9862;49.462;11.054;2023-02-04T00:26:37;99004.16;;;7.63;100.00
19447;BME280;9862;49.462;11.054;2023-02-04T00:29:04;98991.88;;;7.62;100.00
19447;BME280;9862;49.462;11.054;2023-02-04T00:31:30;99002.63;;;7.60;100.00
19447;BME280;9862;49.462;11.054;2023-02-04T00:33:57;98999.50;;;7.49;100.00
19447;BME280;9862;49.462;11.054;2023-02-04T00:36:24;99016.88;;;7.43;100.00
19447;BME280;9862;49.462;11.054;2023-02-04T00:38:51;99014.56;;;7.48;100.00
19447;BME280;9862;49.462;11.054;2023-02-04T00:41:20;99010.59;;;7.44;100.00
19447;BME280;9862;49.462;11.054;2023-02-04T00:43:46;99017.03;;;7.50;100.00
19447;BME280;9862;49.462;11.054;2023-02-04T00:46:13;99011.41;;;7.53;100.00
19447;BME280;9862;49.462;11.054;2023-02-04T00:48:40;99014.41;;;7.50;100.00
19447;BME280;9862;49.462;11.054;2023-02-04T00:51:06;99026.13;;;7.39;100.00
19447;BME280;9862;49.462;11.054;2023-02-04T00:53:33;99020.69;;;7.49;100.00
19447;BME280;9862;49.462;11.054;2023-02-04T00:56:00;99010.91;;;7.49;100.00
19447;BME280;9862;49.462;11.054;2023-02-04T00:58:28;99009.09;;;7.58;100.00
19447;BME280;9862;49.462;11.054;2023-02-04T01:00:54;99014.75;;;7.55;100.00
19447;BME280;9862;49.462;11.054;2023-02-04T01:03:21;99008.28;;;7.57;100.00
19447;BME280;9862;49.462;11.054;2023-02-04T01:05:48;99016.41;;;7.56;100.00
19447;BME280;9862;49.462;11.054;2023-02-04T01:08:15;99017.03;;;7.50;100.00
19447;BME280;9862;49.462;11.054;2023-02-04T01:10:42;99025.00;;;7.58;100.00
19447;BME280;9862;49.462;11.054;2023-02-04T01:13:09;99041.19;;;7.38;100.00
19447;BME280;9862;49.462;11.054;2023-02-04T01:15:37;99051.78;;;7.38;100.00
19447;BME280;9862;49.462;11.054;2023-02-04T01:18:03;99059.56;;;7.32;100.00
19447;BME280;9862;49.462;11.054;2023-02-04T01:20:30;99041.53;;;7.35;100.00
19447;BME280;9862;49.462;11.054;2023-02-04T01:22:57;99052.97;;;7.36;100.00
19447;BME280;9862;49.462;11.054;2023-02-04T01:25:24;99045.19;;;7.34;100.00
19447;BME280;9862;49.462;11.054;2023-02-04T01:27:51;99054.41;;;7.22;100.00
19447;BME280;9862;49.462;11.054;2023-02-04T01:30:18;99060.53;;;7.31;100.00
19447;BME280;9862;49.462;11.054;2023-02-04T01:32:46;99052.75;;;7.21;100.00
19447;BME280;9862;49.462;11.054;2023-02-04T01:35:13;99071.28;;;7.21;100.00
19447;BME280;9862;49.462;11.054;2023-02-04T01:37:41;99075.56;;;7.22;100.00
19447;BME280;9862;49.462;11.054;2023-02-04T01:40:10;99075.56;;;7.14;100.00
19447;BME280;9862;49.462;11.054;2023-02-04T01:42:37;99078.69;;;7.09;100.00
19447;BME280;9862;49.462;11.054;2023-02-04T01:45:05;99078.88;;;7.16;100.00
19447;BME280;9862;49.462;11.054;2023-02-04T01:47:32;99079.84;;;7.07;100.00
19447;BME280;9862;49.462;11.054;2023-02-04T01:50:00;99075.25;;;7.17;100.00
19447;BME280;9862;49.462;11.054;2023-02-04T01:52:31;99086.81;;;7.16;100.00
19447;BME280;9862;49.462;11.054;2023-02-04T01:54:59;99073.53;;;7.00;100.00
19447;BME280;9862;49.462;11.054;2023-02-04T01:57:26;99077.19;;;7.07;100.00
19447;BME280;9862;49.462;11.054;2023-02-04T01:59:54;99061.34;;;7.15;100.00
19447;BME280;9862;49.462;11.054;2023-02-04T02:02:39;99078.19;;;7.14;100.00
19447;BME280;9862;49.462;11.054;2023-02-04T02:05:09;99078.72;;;7.17;100.00
19447;BME280;9862;49.462;11.054;2023-02-04T02:07:36;99095.72;;;7.07;100.00
19447;BME280;9862;49.462;11.054;2023-02-04T02:10:06;99077.53;;;7.12;100.00
19447;BME280;9862;49.462;11.054;2023-02-04T02:12:33;99109.28;;;7.12;100.00
19447;BME280;9862;49.462;11.054;2023-02-04T02:15:00;99086.66;;;7.17;100.00
19447;BME280;9862;49.462;11.054;2023-02-04T02:17:27;99104.00;;;7.12;100.00
19447;BME280;9862;49.462;11.054;2023-02-04T02:19:54;99091.78;;;7.19;100.00
19447;BME280;9862;49.462;11.054;2023-02-04T02:22:24;99088.31;;;7.18;100.00
19447;BME280;9862;49.462;11.054;2023-02-04T02:24:54;99098.41;;;7.23;100.00
19447;BME280;9862;49.462;11.054;2023-02-04T02:27:21;99101.56;;;7.18;100.00
19447;BME280;9862;49.462;11.054;2023-02-04T02:29:48;99099.06;;;7.17;100.00
19447;BME280;9862;49.462;11.054;2023-02-04T02:32:17;99095.91;;;7.13;100.00
19447;BME280;9862;49.462;11.054;2023-02-04T02:34:45;99093.09;;;7.07;100.00
19447;BME280;9862;49.462;11.054;2023-02-04T02:37:13;99101.69;;;7.09;100.00
19447;BME280;9862;49.462;11.054;2023-02-04T02:39:42;99111.00;;;7.21;100.00
19447;BME280;9862;49.462;11.054;2023-02-04T02:42:13;99095.41;;;7.10;100.00
19447;BME280;9862;49.462;11.054;2023-02-04T02:44:41;99109.63;;;7.09;100.00
19447;BME280;9862;49.462;11.054;2023-02-04T02:47:12;99109.00;;;7.15;100.00
19447;BME280;9862;49.462;11.054;2023-02-04T02:49:41;99111.63;;;7.07;100.00
19447;BME280;9862;49.462;11.054;2023-02-04T02:52:10;99109.81;;;7.15;100.00
19447;BME280;9862;49.462;11.054;2023-02-04T02:54:38;99117.59;;;7.17;100.00
19447;BME280;9862;49.462;11.054;2023-02-04T02:57:14;99154.91;;;6.98;100.00
19447;BME280;9862;49.462;11.054;2023-02-04T02:59:42;99130.56;;;6.94;100.00
19447;BME280;9862;49.462;11.054;2023-02-04T03:02:10;99132.91;;;6.97;100.00
19447;BME280;9862;49.462;11.054;2023-02-04T03:04:42;99135.19;;;6.92;100.00
19447;BME280;9862;49.462;11.054;2023-02-04T03:07:10;99163.47;;;6.92;100.00
19447;BME280;9862;49.462;11.054;2023-02-04T03:09:38;99159.16;;;6.91;100.00
19447;BME280;9862;49.462;11.054;2023-02-04T03:12:05;99157.84;;;6.95;100.00
19447;BME280;9862;49.462;11.054;2023-02-04T03:14:34;99138.88;;;6.99;100.00
19447;BME280;9862;49.462;11.054;2023-02-04T03:17:04;99156.88;;;6.96;100.00
19447;BME280;9862;49.462;11.054;2023-02-04T03:19:34;99159.88;;;7.01;100.00
19447;BME280;9862;49.462;11.054;2023-02-04T03:22:04;99164.72;;;7.05;100.00
19447;BME280;9862;49.462;11.054;2023-02-04T03:24:32;99171.06;;;6.95;100.00
19447;BME280;9862;49.462;11.054;2023-02-04T03:26:59;99181.00;;;6.93;100.00
19447;BME280;9862;49.462;11.054;2023-02-04T03:29:26;99184.56;;;6.83;100.00
19447;BME280;9862;49.462;11.054;2023-02-04T03:31:54;99188.78;;;6.94;100.00
19447;BME280;9862;49.462;11.054;2023-02-04T03:34:21;99194.91;;;6.95;100.00
19447;BME280;9862;49.462;11.054;2023-02-04T03:36:48;99189.53;;;6.78;100.00
19447;BME280;9862;49.462;11.054;2023-02-04T03:39:14;99194.19;;;6.84;100.00
19447;BME280;9862;49.462;11.054;2023-02-04T03:41:41;99211.56;;;6.87;100.00
19447;BME280;9862;49.462;11.054;2023-02-04T03:44:08;99211.47;;;6.97;100.00
19447;BME280;9862;49.462;11.054;2023-02-04T03:46:35;99219.84;;;6.92;100.00
19447;BME280;9862;49.462;11.054;2023-02-04T03:49:04;99222.53;;;6.74;100.00
19447;BME280;9862;49.462;11.054;2023-02-04T03:51:31;99217.97;;;6.84;100.00
19447;BME280;9862;49.462;11.054;2023-02-04T03:53:58;99242.06;;;6.73;100.00
19447;BME280;9862;49.462;11.054;2023-02-04T03:56:25;99217.97;;;6.76;100.00
19447;BME280;9862;49.462;11.054;2023-02-04T03:58:52;99225.56;;;6.79;100.00
19447;BME280;9862;49.462;11.054;2023-02-04T04:01:19;99246.59;;;6.81;100.00
19447;BME280;9862;49.462;11.054;2023-02-04T04:03:45;99236.88;;;6.89;100.00
19447;BME280;9862;49.462;11.054;2023-02-04T04:06:14;99242.06;;;6.99;100.00
19447;BME280;9862;49.462;11.054;2023-02-04T04:08:41;99242.59;;;7.03;100.00
19447;BME280;9862;49.462;11.054;2023-02-04T04:11:08;99246.88;;;7.04;100.00
19447;BME280;9862;49.462;11.054;2023-02-04T04:13:34;99245.94;;;7.05;100.00
19447;BME280;9862;49.462;11.054;2023-02-04T04:16:02;99241.56;;;6.96;100.00
19447;BME280;9862;49.462;11.054;2023-02-04T04:18:29;99249.91;;;7.09;100.00
19447;BME280;9862;49.462;11.054;2023-02-04T04:20:57;99247.78;;;7.12;100.00
19447;BME280;9862;49.462;11.054;2023-02-04T04:23:25;99250.91;;;7.08;100.00
19447;BME280;9862;49.462;11.054;2023-02-04T04:25:52;99252.88;;;7.06;100.00
19447;BME280;9862;49.462;11.054;2023-02-04T04:28:19;99249.09;;;7.08;100.00
19447;BME280;9862;49.462;11.054;2023-02-04T04:30:46;99264.81;;;7.10;100.00
19447;BME280;9862;49.462;11.054;2023-02-04T04:33:12;99260.94;;;7.04;100.00
19447;BME280;9862;49.462;11.054;2023-02-04T04:35:39;99268.03;;;6.96;100.00
19447;BME280;9862;49.462;11.054;2023-02-04T04:38:06;99276.31;;;7.01;100.00
19447;BME280;9862;49.462;11.054;2023-02-04T04:40:34;99281.63;;;7.01;100.00
19447;BME280;9862;49.462;11.054;2023-02-04T04:43:00;99285.09;;;7.01;100.00
19447;BME280;9862;49.462;11.054;2023-02-04T04:45:27;99298.66;;;6.98;100.00
19447;BME280;9862;49.462;11.054;2023-02-04T04:47:54;99307.44;;;6.81;100.00
19447;BME280;9862;49.462;11.054;2023-02-04T04:50:21;99312.56;;;6.65;100.00
19447;BME280;9862;49.462;11.054;2023-02-04T04:52:48;99315.38;;;6.63;100.00
19447;BME280;9862;49.462;11.054;2023-02-04T04:55:15;99321.06;;;6.50;100.00
19447;BME280;9862;49.462;11.054;2023-02-04T04:57:44;99323.53;;;6.52;100.00
19447;BME280;9862;49.462;11.054;2023-02-04T05:00:15;99332.06;;;6.46;100.00
19447;BME280;9862;49.462;11.054;2023-02-04T05:02:42;99335.78;;;6.53;100.00
19447;BME280;9862;49.462;11.054;2023-02-04T05:05:10;99335.09;;;6.51;100.00
19447;BME280;9862;49.462;11.054;2023-02-04T05:07:37;99358.31;;;6.57;100.00
19447;BME280;9862;49.462;11.054;2023-02-04T05:10:04;99351.06;;;6.59;100.00
19447;BME280;9862;49.462;11.054;2023-02-04T05:12:31;99360.69;;;6.32;100.00
19447;BME280;9862;49.462;11.054;2023-02-04T05:14:59;99360.63;;;6.42;100.00
19447;BME280;9862;49.462;11.054;2023-02-04T05:17:27;99366.16;;;6.49;100.00
19447;BME280;9862;49.462;11.054;2023-02-04T05:19:53;99369.25;;;6.44;100.00
19447;BME280;9862;49.462;11.054;2023-02-04T05:22:20;99382.81;;;6.31;100.00
19447;BME280;9862;49.462;11.054;2023-02-04T05:24:47;99370.81;;;6.19;100.00
19447;BME280;9862;49.462;11.054;2023-02-04T05:27:14;99364.63;;;6.28;100.00
19447;BME280;9862;49.462;11.054;2023-02-04T05:29:41;99364.00;;;6.35;100.00
19447;BME280;9862;49.462;11.054;2023-02-04T05:32:09;99373.13;;;6.22;100.00
19447;BME280;9862;49.462;11.054;2023-02-04T05:34:36;99373.28;;;6.21;100.00
19447;BME280;9862;49.462;11.054;2023-02-04T05:37:03;99382.34;;;6.18;100.00
19447;BME280;9862;49.462;11.054;2023-02-04T05:39:29;99391.34;;;6.25;100.00
19447;BME280;9862;49.462;11.054;2023-02-04T05:41:56;99396.44;;;6.09;100.00
19447;BME280;9862;49.462;11.054;2023-02-04T05:44:23;99393.59;;;6.20;100.00
19447;BME280;9862;49.462;11.054;2023-02-04T05:46:50;99397.03;;;6.03;100.00
19447;BME280;9862;49.462;11.054;2023-02-04T05:49:18;99399.78;;;6.11;100.00
19447;BME280;9862;49.462;11.054;2023-02-04T05:51:45;99408.72;;;6.00;100.00
19447;BME280;9862;49.462;11.054;2023-02-04T05:54:11;99410.56;;;5.90;100.00
19447;BME280;9862;49.462;11.054;2023-02-04T05:56:43;99432.09;;;5.95;100.00
19447;BME280;9862;49.462;11.054;2023-02-04T05:59:10;99426.78;;;6.05;100.00
19447;BME280;9862;49.462;11.054;2023-02-04T06:01:37;99441.81;;;5.95;100.00
19447;BME280;9862;49.462;11.054;2023-02-04T06:04:05;99445.47;;;5.74;100.00
19447;BME280;9862;49.462;11.054;2023-02-04T06:06:33;99457.19;;;5.53;100.00
19447;BME280;9862;49.462;11.054;2023-02-04T06:09:01;99459.41;;;5.47;100.00
19447;BME280;9862;49.462;11.054;2023-02-04T06:11:28;99464.28;;;5.52;100.00
19447;BME280;9862;49.462;11.054;2023-02-04T06:13:54;99463.31;;;5.53;100.00
19447;BME280;9862;49.462;11.054;2023-02-04T06:16:21;99474.41;;;5.57;100.00
19447;BME280;9862;49.462;11.054;2023-02-04T06:18:47;99478.59;;;5.40;100.00
19447;BME280;9862;49.462;11.054;2023-02-04T06:21:14;99482.50;;;5.45;100.00
19447;BME280;9862;49.462;11.054;2023-02-04T06:23:43;99482.50;;;5.45;100.00
19447;BME280;9862;49.462;11.054;2023-02-04T06:26:10;99485.56;;;5.41;100.00
19447;BME280;9862;49.462;11.054;2023-02-04T06:28:37;99488.06;;;5.52;100.00
19447;BME280;9862;49.462;11.054;2023-02-04T06:31:04;99492.19;;;5.64;100.00
19447;BME280;9862;49.462;11.054;2023-02-04T06:33:31;99502.19;;;5.80;100.00
19447;BME280;9862;49.462;11.054;2023-02-04T06:35:57;99512.19;;;5.77;100.00
19447;BME280;9862;49.462;11.054;2023-02-04T06:38:24;99515.00;;;5.65;100.00
19447;BME280;9862;49.462;11.054;2023-02-04T06:40:52;99529.59;;;5.40;100.00
19447;BME280;9862;49.462;11.054;2023-02-04T06:43:19;99535.56;;;5.13;100.00
19447;BME280;9862;49.462;11.054;2023-02-04T06:45:48;99545.81;;;5.16;100.00
19447;BME280;9862;49.462;11.054;2023-02-04T06:48:15;99544.44;;;5.12;100.00
19447;BME280;9862;49.462;11.054;2023-02-04T06:50:42;99549.00;;;5.10;100.00
19447;BME280;9862;49.462;11.054;2023-02-04T06:53:09;99562.50;;;5.17;100.00
19447;BME280;9862;49.462;11.054;2023-02-04T06:55:36;99567.91;;;5.15;100.00
19447;BME280;9862;49.462;11.054;2023-02-04T06:58:04;99573.84;;;4.98;100.00
19447;BME280;9862;49.462;11.054;2023-02-04T07:00:31;99577.88;;;5.02;100.00
19447;BME280;9862;49.462;11.054;2023-02-04T07:02:58;99573.03;;;5.17;100.00
19447;BME280;9862;49.462;11.054;2023-02-04T07:05:25;99596.13;;;5.25;100.00
19447;BME280;9862;49.462;11.054;2023-02-04T07:07:52;99590.69;;;5.16;100.00
19447;BME280;9862;49.462;11.054;2023-02-04T07:10:18;99594.31;;;5.25;100.00
19447;BME280;9862;49.462;11.054;2023-02-04T07:12:46;99596.00;;;5.36;100.00
19447;BME280;9862;49.462;11.054;2023-02-04T07:15:15;99590.88;;;5.44;100.00
19447;BME280;9862;49.462;11.054;2023-02-04T07:17:41;99590.72;;;5.45;100.00
19447;BME280;9862;49.462;11.054;2023-02-04T07:20:09;99598.09;;;5.42;100.00
19447;BME280;9862;49.462;11.054;2023-02-04T07:22:36;99603.06;;;5.26;100.00
19447;BME280;9862;49.462;11.054;2023-02-04T07:25:03;99611.09;;;5.14;100.00
19447;BME280;9862;49.462;11.054;2023-02-04T07:27:30;99601.94;;;5.18;100.00
19447;BME280;9862;49.462;11.054;2023-02-04T07:29:58;99610.56;;;5.30;100.00
19447;BME280;9862;49.462;11.054;2023-02-04T07:32:26;99623.66;;;5.41;100.00
19447;BME280;9862;49.462;11.054;2023-02-04T07:34:57;99615.03;;;5.49;100.00
19447;BME280;9862;49.462;11.054;2023-02-04T07:37:23;99616.84;;;5.49;100.00
19447;BME280;9862;49.462;11.054;2023-02-04T07:39:50;99617.66;;;5.39;100.00
19447;BME280;9862;49.462;11.054;2023-02-04T07:42:16;99623.38;;;5.35;100.00
19447;BME280;9862;49.462;11.054;2023-02-04T07:44:43;99634.88;;;5.24;100.00
19447;BME280;9862;49.462;11.054;2023-02-04T07:47:10;99653.56;;;5.11;100.00
19447;BME280;9862;49.462;11.054;2023-02-04T07:49:38;99658.25;;;4.98;100.00
19447;BME280;9862;49.462;11.054;2023-02-04T07:52:05;99661.13;;;4.85;100.00
19447;BME280;9862;49.462;11.054;2023-02-04T07:54:32;99667.94;;;4.88;100.00
19447;BME280;9862;49.462;11.054;2023-02-04T07:56:59;99674.88;;;4.89;100.00
19447;BME280;9862;49.462;11.054;2023-02-04T07:59:25;99663.41;;;5.00;100.00
19447;BME280;9862;49.462;11.054;2023-02-04T08:01:52;99668.59;;;5.21;100.00
19447;BME280;9862;49.462;11.054;2023-02-04T08:04:18;99665.16;;;5.30;100.00
19447;BME280;9862;49.462;11.054;2023-02-04T08:06:46;99653.94;;;5.37;100.00
19447;BME280;9862;49.462;11.054;2023-02-04T08:09:14;99663.00;;;5.54;100.00
19447;BME280;9862;49.462;11.054;2023-02-04T08:11:41;99671.22;;;5.61;100.00
19447;BME280;9862;49.462;11.054;2023-02-04T08:14:08;99675.38;;;5.54;100.00
19447;BME280;9862;49.462;11.054;2023-02-04T08:16:34;99683.41;;;5.33;100.00
19447;BME280;9862;49.462;11.054;2023-02-04T08:19:01;99705.59;;;5.30;100.00
19447;BME280;9862;49.462;11.054;2023-02-04T08:21:28;99695.91;;;5.31;100.00
19447;BME280;9862;49.462;11.054;2023-02-04T08:23:56;99702.47;;;5.46;100.00
19447;BME280;9862;49.462;11.054;2023-02-04T08:26:22;99709.28;;;5.58;100.00
19447;BME280;9862;49.462;11.054;2023-02-04T08:28:49;99717.13;;;5.69;100.00
19447;BME280;9862;49.462;11.054;2023-02-04T08:31:16;99719.06;;;5.77;100.00
19447;BME280;9862;49.462;11.054;2023-02-04T08:33:43;99714.91;;;5.84;100.00
19447;BME280;9862;49.462;11.054;2023-02-04T08:36:10;99719.56;;;5.92;100.00
19447;BME280;9862;49.462;11.054;2023-02-04T08:38:37;99726.91;;;6.17;100.00
19447;BME280;9862;49.462;11.054;2023-02-04T08:41:07;99724.03;;;6.40;100.00
19447;BME280;9862;49.462;11.054;2023-02-04T08:43:34;99732.50;;;6.14;100.00
19447;BME280;9862;49.462;11.054;2023-02-04T08:46:01;99737.06;;;5.93;100.00
19447;BME280;9862;49.462;11.054;2023-02-04T08:48:27;99743.34;;;5.92;100.00
19447;BME280;9862;49.462;11.054;2023-02-04T08:50:54;99735.13;;;5.95;100.00
19447;BME280;9862;49.462;11.054;2023-02-04T08:53:21;99742.66;;;6.09;100.00
19447;BME280;9862;49.462;11.054;2023-02-04T08:55:48;99740.03;;;6.28;100.00
19447;BME280;9862;49.462;11.054;2023-02-04T08:58:15;99739.88;;;6.49;100.00
19447;BME280;9862;49.462;11.054;2023-02-04T09:00:43;99752.09;;;6.70;100.00
19447;BME280;9862;49.462;11.054;2023-02-04T09:03:09;99753.91;;;6.79;100.00
19447;BME280;9862;49.462;11.054;2023-02-04T09:05:37;99757.50;;;6.87;100.00
19447;BME280;9862;49.462;11.054;2023-02-04T09:08:04;99744.53;;;6.94;100.00
19447;BME280;9862;49.462;11.054;2023-02-04T09:10:31;99762.13;;;6.85;100.00
19447;BME280;9862;49.462;11.054;2023-02-04T09:12:58;99771.31;;;6.81;100.00
19447;BME280;9862;49.462;11.054;2023-02-04T09:15:26;99772.84;;;6.74;100.00
19447;BME280;9862;49.462;11.054;2023-02-04T09:17:53;99774.25;;;6.78;100.00
19447;BME280;9862;49.462;11.054;2023-02-04T09:20:29;99778.00;;;6.85;100.00
19447;BME280;9862;49.462;11.054;2023-02-04T09:22:55;99769.19;;;6.95;100.00
19447;BME280;9862;49.462;11.054;2023-02-04T09:25:22;99771.72;;;6.96;100.00
19447;BME280;9862;49.462;11.054;2023-02-04T09:27:49;99772.53;;;7.06;100.00
19447;BME280;9862;49.462;11.054;2023-02-04T09:30:16;99775.28;;;7.14;100.00
19447;BME280;9862;49.462;11.054;2023-02-04T09:32:44;99784.13;;;7.33;100.00
19447;BME280;9862;49.462;11.054;2023-02-04T09:35:11;99775.13;;;7.26;100.00
19447;BME280;9862;49.462;11.054;2023-02-04T09:37:37;99784.88;;;7.25;100.00
19447;BME280;9862;49.462;11.054;2023-02-04T09:40:05;99787.91;;;7.30;100.00
19447;BME280;9862;49.462;11.054;2023-02-04T09:42:32;99790.00;;;7.36;100.00
19447;BME280;9862;49.462;11.054;2023-02-04T09:44:58;99802.25;;;7.37;100.00
19447;BME280;9862;49.462;11.054;2023-02-04T09:47:27;99809.38;;;7.37;100.00
19447;BME280;9862;49.462;11.054;2023-02-04T09:49:56;99822.53;;;7.56;100.00
19447;BME280;9862;49.462;11.054;2023-02-04T09:52:22;99822.84;;;7.53;100.00
19447;BME280;9862;49.462;11.054;2023-02-04T09:54:51;99819.63;;;7.50;100.00
19447;BME280;9862;49.462;11.054;2023-02-04T09:57:18;99825.97;;;7.29;100.00
19447;BME280;9862;49.462;11.054;2023-02-04T09:59:45;99832.56;;;7.06;100.00
19447;BME280;9862;49.462;11.054;2023-02-04T10:02:19;99826.88;;;6.81;100.00
19447;BME280;9862;49.462;11.054;2023-02-04T10:04:47;99841.50;;;6.66;100.00
19447;BME280;9862;49.462;11.054;2023-02-04T10:07:16;99843.19;;;6.57;100.00
19447;BME280;9862;49.462;11.054;2023-02-04T10:09:46;99846.91;;;6.45;100.00
19447;BME280;9862;49.462;11.054;2023-02-04T10:12:13;99839.38;;;6.21;100.00
19447;BME280;9862;49.462;11.054;2023-02-04T10:14:40;99839.19;;;6.13;100.00
19447;BME280;9862;49.462;11.054;2023-02-04T10:17:09;99838.81;;;6.18;100.00
19447;BME280;9862;49.462;11.054;2023-02-04T10:19:36;99845.50;;;6.31;100.00
19447;BME280;9862;49.462;11.054;2023-02-04T10:22:10;99846.78;;;6.47;100.00
19447;BME280;9862;49.462;11.054;2023-02-04T10:24:42;99850.41;;;6.65;100.00
19447;BME280;9862;49.462;11.054;2023-02-04T10:27:10;99848.03;;;6.81;100.00
19447;BME280;9862;49.462;11.054;2023-02-04T10:29:37;99841.06;;;7.00;100.00
19447;BME280;9862;49.462;11.054;2023-02-04T10:32:24;99838.69;;;7.16;100.00
19447;BME280;9862;49.462;11.054;2023-02-04T10:34:56;99844.38;;;7.21;100.00
19447;BME280;9862;49.462;11.054;2023-02-04T10:37:23;99843.13;;;7.25;100.00
19447;BME280;9862;49.462;11.054;2023-02-04T10:39:51;99839.19;;;7.29;100.00
19447;BME280;9862;49.462;11.054;2023-02-04T10:42:21;99833.88;;;7.39;100.00
19447;BME280;9862;49.462;11.054;2023-02-04T10:44:47;99830.06;;;7.51;100.00
19447;BME280;9862;49.462;11.054;2023-02-04T10:47:16;99831.13;;;7.68;100.00
19447;BME280;9862;49.462;11.054;2023-02-04T10:49:51;99835.91;;;7.64;100.00
19447;BME280;9862;49.462;11.054;2023-02-04T10:52:20;99839.78;;;7.70;100.00
19447;BME280;9862;49.462;11.054;2023-02-04T10:54:47;99827.19;;;7.72;100.00
19447;BME280;9862;49.462;11.054;2023-02-04T10:57:20;99831.66;;;7.71;100.00
19447;BME280;9862;49.462;11.054;2023-02-04T11:00:01;99823.72;;;7.71;100.00
19447;BME280;9862;49.462;11.054;2023-02-04T11:02:33;99826.66;;;7.68;100.00
19447;BME280;9862;49.462;11.054;2023-02-04T11:05:02;99829.59;;;7.75;100.00
19447;BME280;9862;49.462;11.054;2023-02-04T11:07:29;99833.38;;;7.72;100.00
19447;BME280;9862;49.462;11.054;2023-02-04T11:09:57;99839.78;;;7.70;100.00
19447;BME280;9862;49.462;11.054;2023-02-04T11:12:39;99845.09;;;7.60;100.00
19447;BME280;9862;49.462;11.054;2023-02-04T11:15:39;99843.81;;;7.74;100.00
19447;BME280;9862;49.462;11.054;2023-02-04T11:18:08;99840.94;;;7.58;100.00
19447;BME280;9862;49.462;11.054;2023-02-04T11:20:36;99850.72;;;7.47;100.00
19447;BME280;9862;49.462;11.054;2023-02-04T11:23:29;99839.84;;;7.51;100.00
19447;BME280;9862;49.462;11.054;2023-02-04T11:26:04;99842.22;;;7.54;100.00
19447;BME280;9862;49.462;11.054;2023-02-04T11:28:48;99844.28;;;7.60;100.00
19447;BME280;9862;49.462;11.054;2023-02-04T11:31:28;99845.75;;;7.72;100.00
19447;BME280;9862;49.462;11.054;2023-02-04T11:37:34;99838.28;;;7.95;100.00
19447;BME280;9862;49.462;11.054;2023-02-04T11:40:13;99844.97;;;7.89;100.00
19447;BME280;9862;49.462;11.054;2023-02-04T11:42:46;99853.19;;;7.96;100.00
19447;BME280;9862;49.462;11.054;2023-02-04T11:45:15;99851.69;;;7.93;100.00
19447;BME280;9862;49.462;11.054;2023-02-04T11:47:45;99850.69;;;7.94;100.00
19447;BME280;9862;49.462;11.054;2023-02-04T11:50:16;99844.94;;;7.99;100.00
19447;BME280;9862;49.462;11.054;2023-02-04T11:52:43;99843.53;;;8.04;100.00
19447;BME280;9862;49.462;11.054;2023-02-04T11:55:10;99840.41;;;8.09;100.00
19447;BME280;9862;49.462;11.054;2023-02-04T11:57:38;99844.41;;;8.23;100.00
19447;BME280;9862;49.462;11.054;2023-02-04T12:00:11;99840.91;;;8.22;100.00
19447;BME280;9862;49.462;11.054;2023-02-04T12:02:41;99844.00;;;8.18;100.00
19447;BME280;9862;49.462;11.054;2023-02-04T12:05:12;99845.41;;;8.22;100.00
19447;BME280;9862;49.462;11.054;2023-02-04T12:07:39;99844.09;;;8.26;100.00
19447;BME280;9862;49.462;11.054;2023-02-04T12:10:12;99843.38;;;8.33;100.00
19447;BME280;9862;49.462;11.054;2023-02-04T12:12:43;99851.59;;;8.13;100.00
19447;BME280;9862;49.462;11.054;2023-02-04T12:15:15;99855.31;;;7.92;100.00
19447;BME280;9862;49.462;11.054;2023-02-04T12:17:45;99859.00;;;7.82;100.00
19447;BME280;9862;49.462;11.054;2023-02-04T12:20:14;99860.41;;;7.76;100.00
19447;BME280;9862;49.462;11.054;2023-02-04T12:22:40;99863.63;;;7.70;100.00
19447;BME280;9862;49.462;11.054;2023-02-04T12:25:07;99863.78;;;7.68;100.00
19447;BME280;9862;49.462;11.054;2023-02-04T12:27:40;99876.53;;;7.45;100.00
19447;BME280;9862;49.462;11.054;2023-02-04T12:30:08;99872.25;;;7.35;100.00
19447;BME280;9862;49.462;11.054;2023-02-04T12:32:35;99872.66;;;7.30;100.00
19447;BME280;9862;49.462;11.054;2023-02-04T12:35:02;99879.22;;;7.26;100.00
19447;BME280;9862;49.462;11.054;2023-02-04T12:37:30;99880.31;;;7.33;100.00
19447;BME280;9862;49.462;11.054;2023-02-04T12:39:56;99880.41;;;7.51;100.00
19447;BME280;9862;49.462;11.054;2023-02-04T12:42:23;99880.00;;;7.46;100.00
19447;BME280;9862;49.462;11.054;2023-02-04T12:44:49;99877.75;;;7.51;100.00
19447;BME280;9862;49.462;11.054;2023-02-04T12:47:16;99879.41;;;7.62;100.00
19447;BME280;9862;49.462;11.054;2023-02-04T12:49:42;99877.22;;;7.47;100.00
19447;BME280;9862;49.462;11.054;2023-02-04T12:52:10;99888.41;;;7.32;100.00
19447;BME280;9862;49.462;11.054;2023-02-04T12:54:38;99889.13;;;7.34;100.00
19447;BME280;9862;49.462;11.054;2023-02-04T12:57:05;99883.84;;;7.24;100.00
19447;BME280;9862;49.462;11.054;2023-02-04T12:59:31;99886.59;;;7.23;100.00
19447;BME280;9862;49.462;11.054;2023-02-04T13:01:58;99887.03;;;7.28;100.00
19447;BME280;9862;49.462;11.054;2023-02-04T13:04:24;99891.47;;;7.27;100.00
19447;BME280;9862;49.462;11.054;2023-02-04T13:06:51;99891.88;;;7.23;100.00
19447;BME280;9862;49.462;11.054;2023-02-04T13:09:18;99890.47;;;7.38;100.00